Time;durP1;ratioP1;P1;durP2;ratioP2;P2;SDS_P1;SDS_P2;PMS_P1;PMS_P2;Temp;Humidity;BMP_temperature;BMP_pressure;BME280_temperature;BME280_humidity;BME280_pressure;Samples;Min_cycle;Max_cycle;Signal;HPM_P1;HPM_P2
2023/04/25 00:00:29;;;;;;;5.07;3.03;;;;;;;;;;5057882;28;20234;-64
2023/04/25 00:02:59;;;;;;;5.33;3.60;;;;;;;;;;5057936;28;20213;-64
2023/04/25 00:05:29;;;;;;;5.63;3.67;;;;;;;;;;5057596;28;20245;-64
2023/04/25 00:07:58;;;;;;;4.90;3.37;;;;;;;;;;5056965;28;20207;-64
2023/04/25 00:10:26;;;;;;;7.30;3.23;;;;;;;;;;5046844;28;20227;-64
2023/04/25 00:12:53;;;;;;;6.30;3.63;;;;;;;;;;5037335;28;20211;-64
2023/04/25 00:15:24;;;;;;;5.10;3.40;;;;;;;;;;5044618;28;20265;-63
2023/04/25 00:17:52;;;;;;;5.37;2.87;;;;;;;;;;5057770;28;20262;-63
2023/04/25 00:20:21;;;;;;;3.60;2.93;;;;;;;;;;5058016;28;20199;-63
2023/04/25 00:22:49;;;;;;;6.20;3.60;;;;;;;;;;5057609;28;20207;-63
2023/04/25 00:25:17;;;;;;;4.27;3.77;;;;;;;;;;5048625;28;20219;-63
2023/04/25 00:27:45;;;;;;;5.20;3.00;;;;;;;;;;5042033;28;20218;-64
2023/04/25 00:30:14;;;;;;;5.13;3.07;;;;;;;;;;5037713;28;20259;-63
2023/04/25 00:32:43;;;;;;;4.17;2.93;;;;;;;;;;5047649;28;20203;-63
2023/04/25 00:35:11;;;;;;;5.70;2.90;;;;;;;;;;5038701;28;20223;-63
2023/04/25 00:37:39;;;;;;;4.83;3.33;;;;;;;;;;5038009;28;20214;-63
2023/04/25 00:40:08;;;;;;;3.37;3.00;;;;;;;;;;5047035;28;20202;-63
2023/04/25 00:42:36;;;;;;;3.77;2.83;;;;;;;;;;5046854;28;20199;-63
2023/04/25 00:45:06;;;;;;;3.53;2.83;;;;;;;;;;5046923;28;20817;-63
2023/04/25 00:47:37;;;;;;;3.70;3.30;;;;;;;;;;5045149;28;20200;-63
2023/04/25 00:50:08;;;;;;;4.47;2.87;;;;;;;;;;5045612;28;20751;-63
2023/04/25 00:52:36;;;;;;;7.47;3.87;;;;;;;;;;5046436;28;20213;-63
2023/04/25 00:55:04;;;;;;;5.00;2.60;;;;;;;;;;5046322;28;20698;-62
2023/04/25 00:57:32;;;;;;;5.43;3.00;;;;;;;;;;5045799;28;20195;-61
2023/04/25 01:00:00;;;;;;;5.13;2.70;;;;;;;;;;5057065;28;20207;-61
2023/04/25 01:02:29;;;;;;;4.50;2.87;;;;;;;;;;5057284;28;20265;-61
2023/04/25 01:04:57;;;;;;;5.20;2.97;;;;;;;;;;5057165;28;20233;-61
2023/04/25 01:07:27;;;;;;;6.37;2.70;;;;;;;;;;5056426;28;20218;-61
2023/04/25 01:09:55;;;;;;;3.67;2.50;;;;;;;;;;5049284;28;20222;-60
2023/04/25 01:12:23;;;;;;;3.77;2.47;;;;;;;;;;5057146;28;20693;-61
2023/04/25 01:14:51;;;;;;;6.07;3.00;;;;;;;;;;5056779;28;20290;-61
2023/04/25 01:17:19;;;;;;;5.00;3.07;;;;;;;;;;5056350;28;20569;-61
2023/04/25 01:19:48;;;;;;;6.67;2.87;;;;;;;;;;5056512;28;20234;-61
2023/04/25 01:22:18;;;;;;;3.03;2.47;;;;;;;;;;5056379;28;20731;-61
2023/04/25 01:24:46;;;;;;;6.60;3.27;;;;;;;;;;5050148;28;20203;-61
2023/04/25 01:27:15;;;;;;;3.13;2.57;;;;;;;;;;5055012;28;20241;-61
2023/04/25 01:29:43;;;;;;;3.77;2.40;;;;;;;;;;5060597;28;20213;-62
2023/04/25 01:32:10;;;;;;;4.77;3.20;;;;;;;;;;5060482;28;20234;-61
2023/04/25 01:34:38;;;;;;;3.83;2.67;;;;;;;;;;5060084;28;20207;-61
2023/04/25 01:37:06;;;;;;;4.00;2.57;;;;;;;;;;5059991;28;20226;-61
2023/04/25 01:39:36;;;;;;;6.03;2.53;;;;;;;;;;5060488;28;20275;-61
2023/04/25 01:42:04;;;;;;;4.23;2.27;;;;;;;;;;5056260;28;20246;-61
2023/04/25 01:44:32;;;;;;;3.90;2.77;;;;;;;;;;5056173;28;20203;-61
2023/04/25 01:47:00;;;;;;;6.03;2.80;;;;;;;;;;5060118;28;20227;-61
2023/04/25 01:49:28;;;;;;;4.70;2.27;;;;;;;;;;5059679;28;20277;-61
2023/04/25 01:51:56;;;;;;;3.80;2.70;;;;;;;;;;5055061;28;20258;-61
2023/04/25 01:54:24;;;;;;;6.00;2.70;;;;;;;;;;5054155;28;20666;-61
2023/04/25 01:56:53;;;;;;;3.50;2.43;;;;;;;;;;5055840;28;20218;-61
2023/04/25 01:59:21;;;;;;;5.00;2.40;;;;;;;;;;5054200;28;20686;-61
2023/04/25 02:01:49;;;;;;;3.60;2.67;;;;;;;;;;5059899;28;20222;-61
2023/04/25 02:04:17;;;;;;;4.33;2.47;;;;;;;;;;5060024;28;20218;-61
2023/04/25 02:06:46;;;;;;;2.30;2.10;;;;;;;;;;5059811;28;20226;-61
2023/04/25 02:09:14;;;;;;;3.87;3.57;;;;;;;;;;5057590;28;20206;-61
2023/04/25 02:11:42;;;;;;;4.47;2.33;;;;;;;;;;5056246;28;20262;-61
2023/04/25 02:14:11;;;;;;;8.27;2.53;;;;;;;;;;5059072;28;20286;-61
2023/04/25 02:16:39;;;;;;;5.37;2.40;;;;;;;;;;5059085;28;20226;-61
2023/04/25 02:19:07;;;;;;;4.00;2.03;;;;;;;;;;5059498;28;20321;-61
2023/04/25 02:21:35;;;;;;;5.30;2.50;;;;;;;;;;5059488;28;20203;-61
2023/04/25 02:24:03;;;;;;;4.57;2.67;;;;;;;;;;5056313;28;20294;-61
2023/04/25 02:26:31;;;;;;;3.40;2.33;;;;;;;;;;5048654;28;20219;-61
2023/04/25 02:28:59;;;;;;;3.73;2.37;;;;;;;;;;5059754;28;20242;-61
2023/04/25 02:31:29;;;;;;;3.97;2.20;;;;;;;;;;5059335;28;20233;-61
2023/04/25 02:33:57;;;;;;;6.43;2.50;;;;;;;;;;5053124;28;20200;-61
2023/04/25 02:36:26;;;;;;;2.73;2.10;;;;;;;;;;5047221;28;20266;-61
2023/04/25 02:38:54;;;;;;;4.80;2.37;;;;;;;;;;5039532;28;20212;-61
2023/04/25 02:41:22;;;;;;;3.63;2.43;;;;;;;;;;5037615;28;20210;-61
2023/04/25 02:43:50;;;;;;;3.30;2.27;;;;;;;;;;5037583;28;20238;-61
2023/04/25 02:46:18;;;;;;;2.37;2.13;;;;;;;;;;5037693;28;20262;-61
2023/04/25 02:49:06;;;;;;;4.37;2.77;;;;;;;;;;5045384;28;20298;-61
2023/04/25 02:51:34;;;;;;;4.37;2.00;;;;;;;;;;5056902;28;20772;-61
2023/04/25 02:54:02;;;;;;;4.53;2.30;;;;;;;;;;5057794;28;20245;-61
2023/04/25 02:56:30;;;;;;;5.07;2.30;;;;;;;;;;5058668;28;20250;-61
2023/04/25 02:58:58;;;;;;;4.83;2.10;;;;;;;;;;5059296;28;20207;-61
2023/04/25 03:01:26;;;;;;;4.77;2.23;;;;;;;;;;5059171;28;20210;-61
2023/04/25 03:03:54;;;;;;;4.40;1.93;;;;;;;;;;5059137;28;20207;-61
2023/04/25 03:06:24;;;;;;;5.53;1.90;;;;;;;;;;5057677;28;20257;-61
2023/04/25 03:08:52;;;;;;;5.33;2.30;;;;;;;;;;5054853;28;20622;-61
2023/04/25 03:11:20;;;;;;;3.60;2.37;;;;;;;;;;5052703;28;20250;-61
2023/04/25 03:13:48;;;;;;;4.27;1.97;;;;;;;;;;5059019;28;20294;-61
2023/04/25 03:16:17;;;;;;;3.93;2.13;;;;;;;;;;5058794;28;20229;-61
2023/04/25 03:18:45;;;;;;;2.47;1.90;;;;;;;;;;5058491;28;20242;-61
2023/04/25 03:21:13;;;;;;;5.77;2.53;;;;;;;;;;5058664;28;20210;-61
2023/04/25 03:23:42;;;;;;;4.17;2.50;;;;;;;;;;5055141;28;20235;-63
2023/04/25 03:26:10;;;;;;;6.87;2.70;;;;;;;;;;5049101;28;20763;-60
2023/04/25 03:28:39;;;;;;;5.10;2.43;;;;;;;;;;5058683;28;20214;-62
2023/04/25 03:31:07;;;;;;;3.73;2.57;;;;;;;;;;5058301;28;20290;-62
2023/04/25 03:33:35;;;;;;;6.40;2.27;;;;;;;;;;5058251;28;20209;-62
2023/04/25 03:36:03;;;;;;;6.50;2.57;;;;;;;;;;5058407;28;20230;-62
2023/04/25 03:38:31;;;;;;;5.67;2.83;;;;;;;;;;5058093;28;20689;-62
2023/04/25 03:41:00;;;;;;;5.73;2.80;;;;;;;;;;5057587;28;20211;-62
2023/04/25 03:43:28;;;;;;;6.43;2.67;;;;;;;;;;5058482;28;20213;-62
2023/04/25 03:45:56;;;;;;;3.73;2.20;;;;;;;;;;5058289;28;20306;-62
2023/04/25 03:48:25;;;;;;;4.07;2.17;;;;;;;;;;5058348;28;20206;-62
2023/04/25 03:50:53;;;;;;;4.63;2.50;;;;;;;;;;5058009;28;20235;-62
2023/04/25 03:53:21;;;;;;;5.30;2.53;;;;;;;;;;5058076;28;20292;-62
2023/04/25 03:55:49;;;;;;;3.80;1.80;;;;;;;;;;5058130;28;20234;-62
2023/04/25 03:58:19;;;;;;;6.83;2.40;;;;;;;;;;5057146;28;20210;-62
2023/04/25 04:00:47;;;;;;;3.87;2.20;;;;;;;;;;5056884;28;20261;-62
2023/04/25 04:03:15;;;;;;;4.77;3.17;;;;;;;;;;5057144;28;20203;-61
2023/04/25 04:05:43;;;;;;;3.73;2.37;;;;;;;;;;5038088;28;20319;-62
2023/04/25 04:08:11;;;;;;;6.03;2.80;;;;;;;;;;5037839;28;20246;-62
2023/04/25 04:10:39;;;;;;;4.47;2.57;;;;;;;;;;5046791;28;20288;-62
2023/04/25 04:13:08;;;;;;;3.87;2.47;;;;;;;;;;5051260;28;20671;-62
2023/04/25 04:15:37;;;;;;;4.07;2.53;;;;;;;;;;5056430;28;20223;-62
2023/04/25 04:18:06;;;;;;;4.97;2.03;;;;;;;;;;5043089;28;20239;-62
2023/04/25 04:20:34;;;;;;;4.73;2.60;;;;;;;;;;5037918;28;20239;-62
2023/04/25 04:23:02;;;;;;;3.10;2.20;;;;;;;;;;5037755;28;20238;-62
2023/04/25 04:25:30;;;;;;;4.93;2.40;;;;;;;;;;5038221;28;20263;-62
2023/04/25 04:27:58;;;;;;;4.13;2.50;;;;;;;;;;5057670;28;20210;-62
2023/04/25 04:30:29;;;;;;;4.30;2.40;;;;;;;;;;5057770;28;20266;-62
2023/04/25 04:32:58;;;;;;;5.50;2.70;;;;;;;;;;5052735;28;20227;-62
2023/04/25 04:35:26;;;;;;;4.27;2.60;;;;;;;;;;5046116;28;20254;-62
2023/04/25 04:37:55;;;;;;;6.93;2.77;;;;;;;;;;5041112;28;20202;-62
2023/04/25 04:40:23;;;;;;;6.87;3.00;;;;;;;;;;5056829;28;20206;-62
2023/04/25 04:42:51;;;;;;;4.43;2.80;;;;;;;;;;5049619;28;20573;-62
2023/04/25 04:45:18;;;;;;;4.77;2.80;;;;;;;;;;5045763;28;20265;-62
2023/04/25 04:47:48;;;;;;;3.70;2.87;;;;;;;;;;5045070;28;20200;-62
2023/04/25 04:50:18;;;;;;;7.10;3.07;;;;;;;;;;5047158;28;20196;-62
2023/04/25 04:52:46;;;;;;;5.47;2.80;;;;;;;;;;5045956;28;20702;-62
2023/04/25 04:55:14;;;;;;;4.27;2.73;;;;;;;;;;5047028;28;20261;-62
2023/04/25 04:57:42;;;;;;;4.13;3.00;;;;;;;;;;5047621;28;20208;-62
2023/04/25 05:00:11;;;;;;;5.30;3.50;;;;;;;;;;5050792;28;20207;-62
2023/04/25 05:02:39;;;;;;;3.73;2.70;;;;;;;;;;5052883;28;20686;-62
2023/04/25 05:05:08;;;;;;;7.80;3.73;;;;;;;;;;5051379;28;20218;-62
2023/04/25 05:07:37;;;;;;;6.47;3.17;;;;;;;;;;5057642;28;20205;-62
2023/04/25 05:10:05;;;;;;;4.83;3.20;;;;;;;;;;5048575;28;20218;-62
2023/04/25 05:12:34;;;;;;;6.20;3.87;;;;;;;;;;5050645;28;20223;-62
2023/04/25 05:15:04;;;;;;;4.23;3.20;;;;;;;;;;5050491;28;20244;-62
2023/04/25 05:17:32;;;;;;;6.97;3.77;;;;;;;;;;5048889;28;20199;-62
2023/04/25 05:20:00;;;;;;;6.47;3.03;;;;;;;;;;5049643;28;20593;-62
2023/04/25 05:22:28;;;;;;;3.90;3.00;;;;;;;;;;5050078;28;20207;-62
2023/04/25 05:24:58;;;;;;;6.20;3.30;;;;;;;;;;5050843;28;20206;-63
2023/04/25 05:27:26;;;;;;;8.37;4.17;;;;;;;;;;5050144;28;20650;-62
2023/04/25 05:29:54;;;;;;;6.13;3.23;;;;;;;;;;5049681;28;20199;-62
2023/04/25 05:32:22;;;;;;;7.80;3.43;;;;;;;;;;5052170;28;20561;-62
2023/04/25 05:34:50;;;;;;;4.13;3.13;;;;;;;;;;5046432;28;20988;-62
2023/04/25 05:37:18;;;;;;;5.40;3.63;;;;;;;;;;5053960;28;20290;-62
2023/04/25 05:39:46;;;;;;;7.53;3.87;;;;;;;;;;5055272;28;20281;-62
2023/04/25 05:42:16;;;;;;;5.20;3.77;;;;;;;;;;5051872;28;20262;-63
2023/04/25 05:44:44;;;;;;;9.83;3.40;;;;;;;;;;5048303;28;20200;-62
2023/04/25 05:47:12;;;;;;;5.83;3.87;;;;;;;;;;5057070;28;20203;-62
2023/04/25 05:49:40;;;;;;;5.97;4.00;;;;;;;;;;5057267;28;20242;-63
2023/04/25 05:52:08;;;;;;;4.50;3.60;;;;;;;;;;5050753;28;20549;-62
2023/04/25 05:54:36;;;;;;;4.77;3.63;;;;;;;;;;5058983;28;20262;-62
2023/04/25 05:57:04;;;;;;;6.27;3.23;;;;;;;;;;5057036;28;20226;-63
2023/04/25 05:59:33;;;;;;;5.03;3.33;;;;;;;;;;5054784;28;20214;-64
2023/04/25 06:02:01;;;;;;;9.00;3.57;;;;;;;;;;5059149;28;20345;-61
2023/04/25 06:04:29;;;;;;;5.77;3.13;;;;;;;;;;5043938;28;20191;-61
2023/04/25 06:06:58;;;;;;;5.07;3.20;;;;;;;;;;5059573;28;20227;-61
2023/04/25 06:09:26;;;;;;;8.23;4.40;;;;;;;;;;5058742;28;20203;-61
2023/04/25 06:11:54;;;;;;;6.53;3.70;;;;;;;;;;5059617;28;20610;-60
2023/04/25 06:14:22;;;;;;;7.13;3.20;;;;;;;;;;5040051;28;20267;-59
2023/04/25 06:16:52;;;;;;;4.37;3.53;;;;;;;;;;5039873;28;20231;-60
2023/04/25 06:19:19;;;;;;;4.10;3.10;;;;;;;;;;5041888;28;20809;-59
2023/04/25 06:21:47;;;;;;;6.67;3.37;;;;;;;;;;5057445;28;20205;-61
2023/04/25 06:24:15;;;;;;;5.37;3.03;;;;;;;;;;5039932;28;20286;-61
2023/04/25 06:26:44;;;;;;;3.57;3.17;;;;;;;;;;5049948;28;20680;-61
2023/04/25 06:29:12;;;;;;;4.20;3.43;;;;;;;;;;5059573;28;20249;-61
2023/04/25 06:31:40;;;;;;;6.77;3.90;;;;;;;;;;5056613;28;20199;-61
2023/04/25 06:34:09;;;;;;;6.67;3.50;;;;;;;;;;5039711;28;20234;-61
2023/04/25 06:36:37;;;;;;;7.40;4.03;;;;;;;;;;5039074;28;20281;-61
2023/04/25 06:39:05;;;;;;;5.83;3.17;;;;;;;;;;5039382;28;20238;-61
2023/04/25 06:41:33;;;;;;;6.17;3.90;;;;;;;;;;5039290;28;20211;-61
2023/04/25 06:44:01;;;;;;;10.90;3.40;;;;;;;;;;5048100;28;20567;-61
2023/04/25 06:46:29;;;;;;;7.40;3.40;;;;;;;;;;5051880;28;20226;-61
2023/04/25 06:48:57;;;;;;;8.17;3.93;;;;;;;;;;5059330;28;20214;-61
2023/04/25 06:51:28;;;;;;;6.53;4.10;;;;;;;;;;5058938;28;20592;-61
2023/04/25 06:53:57;;;;;;;7.43;3.37;;;;;;;;;;5059052;28;20230;-60
2023/04/25 06:56:25;;;;;;;9.43;4.13;;;;;;;;;;5058823;28;20732;-61
2023/04/25 06:58:53;;;;;;;5.53;3.30;;;;;;;;;;5059013;28;20662;-61
2023/04/25 07:01:20;;;;;;;5.63;4.00;;;;;;;;;;5058301;28;20281;-61
2023/04/25 07:03:48;;;;;;;6.03;4.00;;;;;;;;;;5057112;28;20199;-62
2023/04/25 07:06:17;;;;;;;3.00;2.70;;;;;;;;;;5058758;28;20257;-62
2023/04/25 07:08:46;;;;;;;6.70;3.33;;;;;;;;;;5055721;28;20681;-62
2023/04/25 07:11:16;;;;;;;5.83;3.07;;;;;;;;;;5059016;28;20210;-62
2023/04/25 07:13:44;;;;;;;7.47;3.47;;;;;;;;;;5058633;28;20227;-62
2023/04/25 07:16:12;;;;;;;4.07;3.07;;;;;;;;;;5058724;28;20231;-62
2023/04/25 07:18:40;;;;;;;5.67;3.63;;;;;;;;;;5057743;28;20349;-62
2023/04/25 07:21:08;;;;;;;5.93;3.33;;;;;;;;;;5040096;28;20211;-62
2023/04/25 07:23:37;;;;;;;3.90;3.47;;;;;;;;;;5038903;28;20214;-62
2023/04/25 07:26:06;;;;;;;7.37;2.87;;;;;;;;;;5053451;28;20222;-60
2023/04/25 07:28:34;;;;;;;4.17;3.03;;;;;;;;;;5045407;28;20207;-62
2023/04/25 07:31:02;;;;;;;6.13;2.90;;;;;;;;;;5038385;28;20250;-62
2023/04/25 07:33:30;;;;;;;4.40;2.97;;;;;;;;;;5038225;28;20211;-61
2023/04/25 07:35:58;;;;;;;4.93;2.77;;;;;;;;;;5038241;28;20239;-63
2023/04/25 07:38:26;;;;;;;6.63;2.90;;;;;;;;;;5038602;28;20243;-62
2023/04/25 07:40:54;;;;;;;6.63;2.60;;;;;;;;;;5052168;28;20234;-62
2023/04/25 07:43:24;;;;;;;5.13;2.70;;;;;;;;;;5053496;28;20803;-63
2023/04/25 07:45:51;;;;;;;6.37;2.70;;;;;;;;;;5056987;28;20226;-63
2023/04/25 07:48:19;;;;;;;5.83;2.73;;;;;;;;;;5048562;28;20207;-63
2023/04/25 07:50:47;;;;;;;3.07;2.70;;;;;;;;;;5054684;28;20226;-62
2023/04/25 07:53:17;;;;;;;4.13;2.90;;;;;;;;;;5057857;28;20290;-62
2023/04/25 07:55:45;;;;;;;2.90;2.10;;;;;;;;;;5057840;28;20243;-62
2023/04/25 07:58:15;;;;;;;7.77;2.70;;;;;;;;;;5058050;28;20206;-61
2023/04/25 08:00:44;;;;;;;3.90;2.40;;;;;;;;;;5057746;28;20207;-62
2023/04/25 08:03:12;;;;;;;4.77;2.70;;;;;;;;;;5047858;28;20287;-61
2023/04/25 08:05:40;;;;;;;5.10;2.50;;;;;;;;;;5044460;28;20222;-60
2023/04/25 08:08:09;;;;;;;3.03;2.30;;;;;;;;;;5040729;28;20200;-61
2023/04/25 08:10:36;;;;;;;3.50;2.40;;;;;;;;;;5054217;28;20206;-61
2023/04/25 08:13:04;;;;;;;5.03;2.10;;;;;;;;;;5054255;28;20708;-61
2023/04/25 08:15:32;;;;;;;5.50;2.47;;;;;;;;;;5037604;28;20690;-61
2023/04/25 08:18:02;;;;;;;4.07;2.40;;;;;;;;;;5051370;28;20219;-62
2023/04/25 08:20:30;;;;;;;3.80;2.87;;;;;;;;;;5056962;28;20241;-61
2023/04/25 08:22:58;;;;;;;5.37;2.30;;;;;;;;;;5057572;28;20238;-61
2023/04/25 08:25:26;;;;;;;2.07;1.90;;;;;;;;;;5057317;28;20225;-61
2023/04/25 08:27:54;;;;;;;3.47;2.03;;;;;;;;;;5057694;28;20238;-61
2023/04/25 08:30:22;;;;;;;4.20;2.43;;;;;;;;;;5057592;28;20772;-61
2023/04/25 08:32:50;;;;;;;3.67;2.03;;;;;;;;;;5056678;28;20233;-61
2023/04/25 08:35:21;;;;;;;3.83;2.17;;;;;;;;;;5057483;28;20277;-61
2023/04/25 08:37:49;;;;;;;2.63;2.00;;;;;;;;;;5056583;28;20229;-61
2023/04/25 08:40:17;;;;;;;5.27;2.00;;;;;;;;;;5047783;28;20670;-61
2023/04/25 08:42:45;;;;;;;5.37;2.60;;;;;;;;;;5037759;28;20246;-61
2023/04/25 08:45:16;;;;;;;3.67;2.30;;;;;;;;;;5037553;28;20259;-61
2023/04/25 08:47:46;;;;;;;7.70;2.10;;;;;;;;;;5037531;28;20249;-61
2023/04/25 08:50:14;;;;;;;3.10;2.03;;;;;;;;;;5037634;28;20208;-61
2023/04/25 08:52:44;;;;;;;4.70;2.17;;;;;;;;;;5037023;28;20207;-61
2023/04/25 08:55:13;;;;;;;5.07;2.50;;;;;;;;;;5050310;28;20288;-61
2023/04/25 08:57:42;;;;;;;4.97;2.00;;;;;;;;;;5047502;28;20286;-61
2023/04/25 09:00:11;;;;;;;8.43;2.60;;;;;;;;;;5055450;28;20589;-61
2023/04/25 09:02:40;;;;;;;4.00;1.83;;;;;;;;;;5057340;28;20216;-61
2023/04/25 09:05:09;;;;;;;3.47;1.70;;;;;;;;;;5044689;28;20215;-61
2023/04/25 09:07:37;;;;;;;5.27;1.90;;;;;;;;;;5037463;28;20207;-61
2023/04/25 09:10:07;;;;;;;4.97;3.00;;;;;;;;;;5041965;28;20234;-61
2023/04/25 09:12:36;;;;;;;4.03;2.00;;;;;;;;;;5055564;28;20632;-61
2023/04/25 09:15:05;;;;;;;3.93;1.60;;;;;;;;;;5050803;28;20235;-61
2023/04/25 09:17:33;;;;;;;3.87;1.70;;;;;;;;;;5037260;28;20203;-61
2023/04/25 09:20:08;;;;;;;1.60;1.50;;;;;;;;;;5041107;28;20285;-61
2023/04/25 09:22:37;;;;;;;2.50;1.63;;;;;;;;;;5041468;28;20206;-61
2023/04/25 09:25:09;;;;;;;2.00;1.43;;;;;;;;;;5036969;28;20227;-61
2023/04/25 09:27:49;;;;;;;3.57;2.17;;;;;;;;;;5054970;28;20215;-61
2023/04/25 09:30:17;;;;;;;2.17;1.50;;;;;;;;;;5056098;28;20585;-61
2023/04/25 09:32:45;;;;;;;4.00;2.10;;;;;;;;;;5052519;28;20258;-61
2023/04/25 09:35:24;;;;;;;6.40;1.87;;;;;;;;;;5055731;28;20234;-61
2023/04/25 09:37:52;;;;;;;1.87;1.60;;;;;;;;;;5056630;28;20241;-61
2023/04/25 09:40:20;;;;;;;2.80;1.60;;;;;;;;;;5056063;28;20231;-61
2023/04/25 09:42:49;;;;;;;6.87;1.60;;;;;;;;;;5057110;28;20241;-61
2023/04/25 09:45:17;;;;;;;2.97;1.57;;;;;;;;;;5059542;28;20702;-61
2023/04/25 09:47:45;;;;;;;2.60;1.40;;;;;;;;;;5060510;28;20229;-61
2023/04/25 09:50:15;;;;;;;4.07;1.57;;;;;;;;;;5059767;28;20287;-61
2023/04/25 09:52:44;;;;;;;3.80;1.57;;;;;;;;;;5060112;28;20215;-60
2023/04/25 09:55:12;;;;;;;2.30;1.63;;;;;;;;;;5059930;28;20226;-61
2023/04/25 09:57:41;;;;;;;4.17;1.93;;;;;;;;;;5060772;28;20358;-61
2023/04/25 10:00:12;;;;;;;1.90;1.60;;;;;;;;;;5057832;28;20199;-60
2023/04/25 10:02:43;;;;;;;2.30;1.57;;;;;;;;;;5040137;28;20571;-60
2023/04/25 10:05:11;;;;;;;17.17;8.13;;;;;;;;;;5039993;28;20223;-61
2023/04/25 10:07:40;;;;;;;4.40;2.10;;;;;;;;;;5039908;28;20207;-61
2023/04/25 10:10:08;;;;;;;3.77;1.63;;;;;;;;;;5050963;28;20231;-63
2023/04/25 10:12:37;;;;;;;2.07;1.30;;;;;;;;;;5060154;28;20264;-60
2023/04/25 10:15:05;;;;;;;2.53;1.37;;;;;;;;;;5041829;28;20729;-61
2023/04/25 10:17:35;;;;;;;1.80;1.70;;;;;;;;;;5039763;28;20218;-61
2023/04/25 10:20:04;;;;;;;4.53;1.90;;;;;;;;;;5041618;28;20242;-61
2023/04/25 10:22:35;;;;;;;4.53;2.93;;;;;;;;;;5059748;28;20217;-62
2023/04/25 10:25:04;;;;;;;4.53;2.60;;;;;;;;;;5059552;28;20706;-60
2023/04/25 10:27:32;;;;;;;3.30;1.77;;;;;;;;;;5059683;28;20202;-61
2023/04/25 10:30:04;;;;;;;2.50;1.97;;;;;;;;;;5057599;28;20245;-62
2023/04/25 10:32:34;;;;;;;3.93;1.70;;;;;;;;;;5044523;28;20203;-61
2023/04/25 10:35:12;;;;;;;2.20;1.30;;;;;;;;;;5051107;28;20309;-62
2023/04/25 10:37:57;;;;;;;3.90;2.30;;;;;;;;;;5039550;28;20211;-60
2023/04/25 10:40:25;;;;;;;4.03;1.50;;;;;;;;;;5043885;28;20248;-60
2023/04/25 10:42:53;;;;;;;2.07;1.33;;;;;;;;;;5059735;28;20218;-63
2023/04/25 10:45:21;;;;;;;2.20;1.50;;;;;;;;;;5059516;28;20234;-61
2023/04/25 10:47:51;;;;;;;4.00;2.13;;;;;;;;;;5053339;28;20207;-59
2023/04/25 10:50:19;;;;;;;5.30;1.40;;;;;;;;;;5049630;28;20235;-61
2023/04/25 10:52:50;;;;;;;2.60;1.40;;;;;;;;;;5048520;28;20203;-62
2023/04/25 10:55:18;;;;;;;7.70;1.90;;;;;;;;;;5047870;28;20226;-62
2023/04/25 10:57:48;;;;;;;1.80;1.30;;;;;;;;;;5048923;28;20223;-62
2023/04/25 11:00:17;;;;;;;3.00;1.50;;;;;;;;;;5049443;28;20207;-62
2023/04/25 11:02:46;;;;;;;2.87;1.40;;;;;;;;;;5049303;28;20258;-62
2023/04/25 11:05:23;;;;;;;1.40;1.33;;;;;;;;;;5048034;28;20306;-62
2023/04/25 11:07:52;;;;;;;4.67;1.50;;;;;;;;;;5048267;28;20753;-62
2023/04/25 11:10:26;;;;;;;3.53;1.40;;;;;;;;;;5046096;28;20208;-62
2023/04/25 11:12:58;;;;;;;2.87;1.60;;;;;;;;;;5051775;28;20199;-62
2023/04/25 11:15:26;;;;;;;3.20;1.53;;;;;;;;;;5055786;28;20230;-62
2023/04/25 11:17:55;;;;;;;2.47;1.40;;;;;;;;;;5058378;28;20206;-63
2023/04/25 11:20:28;;;;;;;2.07;1.60;;;;;;;;;;5038896;28;20246;-62
2023/04/25 11:22:58;;;;;;;2.83;1.40;;;;;;;;;;5037836;28;20203;-62
2023/04/25 11:25:26;;;;;;;4.10;1.40;;;;;;;;;;5027303;28;20251;-60
2023/04/25 11:27:55;;;;;;;3.10;1.70;;;;;;;;;;5036653;28;20258;-60
2023/04/25 11:30:27;;;;;;;3.23;1.33;;;;;;;;;;5038645;28;20212;-60
2023/04/25 11:32:55;;;;;;;2.67;1.57;;;;;;;;;;5030675;28;20683;-60
2023/04/25 11:35:25;;;;;;;2.00;1.57;;;;;;;;;;5020071;28;20255;-61
2023/04/25 11:40:43;;;;;;;3.10;1.60;;;;;;;;;;5025982;28;20294;-62
2023/04/25 11:43:11;;;;;;;2.63;1.50;;;;;;;;;;5036248;28;20234;-63
2023/04/25 11:45:52;;;;;;;1.60;1.33;;;;;;;;;;5032240;28;20251;-62
2023/04/25 11:48:20;;;;;;;3.07;1.30;;;;;;;;;;5034994;28;20200;-62
2023/04/25 11:50:54;;;;;;;1.30;1.20;;;;;;;;;;5037646;28;20674;-63
2023/04/25 11:53:24;;;;;;;1.57;1.43;;;;;;;;;;5034442;28;20210;-63
2023/04/25 11:55:52;;;;;;;3.33;1.57;;;;;;;;;;5037748;28;20277;-63
2023/04/25 11:58:21;;;;;;;1.93;1.70;;;;;;;;;;5034475;28;20704;-62
2023/04/25 12:00:49;;;;;;;1.30;1.20;;;;;;;;;;5022508;28;20210;-63
2023/04/25 12:03:23;;;;;;;3.13;1.33;;;;;;;;;;5036342;28;20283;-63
2023/04/25 12:05:52;;;;;;;1.40;1.30;;;;;;;;;;5037469;28;20227;-63
2023/04/25 12:08:22;;;;;;;2.00;1.40;;;;;;;;;;5036807;28;20238;-64
2023/04/25 12:10:50;;;;;;;2.30;1.87;;;;;;;;;;5037149;28;20574;-62
2023/04/25 12:13:21;;;;;;;2.33;2.03;;;;;;;;;;5034236;28;20223;-62
2023/04/25 12:15:49;;;;;;;2.27;1.47;;;;;;;;;;5034846;28;20246;-62
2023/04/25 12:18:20;;;;;;;1.40;1.30;;;;;;;;;;5040488;28;20234;-63
2023/04/25 12:20:48;;;;;;;2.17;1.30;;;;;;;;;;5057540;28;20253;-62
2023/04/25 12:23:16;;;;;;;1.77;1.20;;;;;;;;;;5056055;28;20226;-62
2023/04/25 12:25:46;;;;;;;1.60;1.43;;;;;;;;;;5046026;28;20556;-62
2023/04/25 12:28:15;;;;;;;4.17;2.47;;;;;;;;;;5050425;28;20208;-62
2023/04/25 12:30:57;;;;;;;4.03;1.23;;;;;;;;;;5057697;28;20241;-62
2023/04/25 12:33:25;;;;;;;4.83;1.40;;;;;;;;;;5054782;28;20269;-62
2023/04/25 12:35:54;;;;;;;1.80;1.37;;;;;;;;;;5056112;28;20214;-62
2023/04/25 12:38:22;;;;;;;9.00;5.33;;;;;;;;;;5052934;28;20223;-63
2023/04/25 12:40:52;;;;;;;3.10;2.33;;;;;;;;;;5057699;28;20211;-63
2023/04/25 12:43:20;;;;;;;2.53;1.57;;;;;;;;;;5055444;28;20302;-62
2023/04/25 12:45:48;;;;;;;2.43;1.33;;;;;;;;;;5056329;28;20306;-63
2023/04/25 12:48:16;;;;;;;1.57;1.20;;;;;;;;;;5057210;28;20286;-63
2023/04/25 12:50:44;;;;;;;2.30;1.47;;;;;;;;;;5057272;28;20210;-63
2023/04/25 12:53:13;;;;;;;2.00;1.10;;;;;;;;;;5057372;28;20217;-62
2023/04/25 12:55:41;;;;;;;2.10;1.23;;;;;;;;;;5056171;28;20614;-62
2023/04/25 12:58:10;;;;;;;2.73;1.50;;;;;;;;;;5049656;28;20652;-63
2023/04/25 13:00:38;;;;;;;2.20;1.20;;;;;;;;;;5052540;28;20666;-63
2023/04/25 13:03:06;;;;;;;3.27;1.40;;;;;;;;;;5057202;28;20229;-63
2023/04/25 13:05:35;;;;;;;1.90;1.37;;;;;;;;;;5054710;28;20226;-63
2023/04/25 13:08:04;;;;;;;1.93;1.20;;;;;;;;;;5056888;28;20274;-63
2023/04/25 13:10:33;;;;;;;1.30;1.20;;;;;;;;;;5048675;28;20198;-62
2023/04/25 13:13:02;;;;;;;3.70;1.57;;;;;;;;;;5055525;28;20210;-62
2023/04/25 13:15:32;;;;;;;2.60;1.43;;;;;;;;;;5052693;28;20310;-63
2023/04/25 13:18:00;;;;;;;1.70;1.30;;;;;;;;;;5048055;28;20227;-63
2023/04/25 13:20:28;;;;;;;2.87;1.77;;;;;;;;;;5060149;28;20689;-63
2023/04/25 13:22:56;;;;;;;1.43;1.10;;;;;;;;;;5060402;28;20242;-61
2023/04/25 13:25:24;;;;;;;1.20;1.10;;;;;;;;;;5059918;28;20306;-62
2023/04/25 13:27:52;;;;;;;1.37;1.00;;;;;;;;;;5051792;28;20203;-63
2023/04/25 13:30:20;;;;;;;6.50;1.30;;;;;;;;;;5060709;28;20203;-62
2023/04/25 13:32:50;;;;;;;2.60;1.10;;;;;;;;;;5060687;28;20214;-63
2023/04/25 13:35:18;;;;;;;2.40;1.10;;;;;;;;;;5062425;28;20233;-63
2023/04/25 13:37:46;;;;;;;2.77;1.40;;;;;;;;;;5058433;28;20275;-64
2023/04/25 13:40:14;;;;;;;1.90;1.23;;;;;;;;;;5058732;28;20581;-64
2023/04/25 13:42:44;;;;;;;3.63;1.60;;;;;;;;;;5060290;28;20816;-63
2023/04/25 13:45:12;;;;;;;2.30;2.00;;;;;;;;;;5059337;28;20222;-63
2023/04/25 13:47:40;;;;;;;3.70;1.50;;;;;;;;;;5060065;28;20207;-64
2023/04/25 13:50:10;;;;;;;4.10;1.57;;;;;;;;;;5060366;28;20222;-61
2023/04/25 13:52:38;;;;;;;1.20;1.10;;;;;;;;;;5056104;28;20204;-63
2023/04/25 13:55:07;;;;;;;3.17;1.33;;;;;;;;;;5043670;28;20229;-64
2023/04/25 13:57:35;;;;;;;4.43;1.40;;;;;;;;;;5053371;28;20223;-60
2023/04/25 14:00:08;;;;;;;3.97;1.40;;;;;;;;;;5060294;28;20221;-61
2023/04/25 14:02:36;;;;;;;1.23;1.13;;;;;;;;;;5056610;28;20202;-61
2023/04/25 14:05:06;;;;;;;2.40;1.20;;;;;;;;;;5060212;28;20257;-62
2023/04/25 14:07:36;;;;;;;2.97;1.30;;;;;;;;;;5054354;28;20203;-61
2023/04/25 14:10:05;;;;;;;1.97;1.30;;;;;;;;;;5055147;28;20303;-62
2023/04/25 14:12:33;;;;;;;1.67;1.27;;;;;;;;;;5059780;28;20199;-63
2023/04/25 14:15:01;;;;;;;2.03;1.30;;;;;;;;;;5059649;28;20207;-63
2023/04/25 14:17:29;;;;;;;2.93;1.40;;;;;;;;;;5057651;28;20252;-63
2023/04/25 14:19:58;;;;;;;1.97;1.50;;;;;;;;;;5059405;28;20234;-64
2023/04/25 14:22:26;;;;;;;2.10;1.00;;;;;;;;;;5058600;28;20278;-63
2023/04/25 14:24:55;;;;;;;2.27;1.07;;;;;;;;;;5059295;28;20571;-63
2023/04/25 14:27:23;;;;;;;2.43;1.30;;;;;;;;;;5058918;28;20281;-60
2023/04/25 14:29:54;;;;;;;4.90;1.20;;;;;;;;;;5056377;28;20708;-62
2023/04/25 14:32:22;;;;;;;3.70;1.90;;;;;;;;;;5054862;28;20199;-62
2023/04/25 14:34:50;;;;;;;2.77;1.90;;;;;;;;;;5049384;28;20736;-60
2023/04/25 14:37:18;;;;;;;3.03;1.27;;;;;;;;;;5059481;28;20261;-60
2023/04/25 14:39:46;;;;;;;3.67;1.23;;;;;;;;;;5059472;28;20291;-60
2023/04/25 14:42:16;;;;;;;2.53;1.07;;;;;;;;;;5058500;28;20592;-60
2023/04/25 14:44:44;;;;;;;2.40;1.20;;;;;;;;;;5059212;28;20210;-60
2023/04/25 14:47:12;;;;;;;1.53;1.23;;;;;;;;;;5059306;28;20278;-60
2023/04/25 14:49:40;;;;;;;1.33;0.90;;;;;;;;;;5043205;28;20243;-60
2023/04/25 14:52:08;;;;;;;2.90;1.40;;;;;;;;;;5052731;28;20286;-60
2023/04/25 14:54:36;;;;;;;2.77;1.20;;;;;;;;;;5058821;28;20211;-61